createdAt,value
2023-03-24T00:00:48.902Z,16.28
2023-03-24T00:03:17.418Z,16.29
2023-03-24T00:05:44.933Z,16.30
2023-03-24T00:08:11.456Z,16.34
2023-03-24T00:10:37.965Z,16.31
2023-03-24T00:13:04.601Z,16.31
2023-03-24T00:15:31.452Z,16.31
2023-03-24T00:17:58.407Z,16.19
2023-03-24T00:20:26.389Z,16.15
2023-03-24T00:22:58.603Z,16.17
2023-03-24T00:25:28.542Z,16.17
2023-03-24T00:27:56.433Z,16.22
2023-03-24T00:30:25.043Z,16.14
2023-03-24T00:32:52.082Z,16.22
2023-03-24T00:35:18.689Z,16.15
2023-03-24T00:37:45.808Z,16.16
2023-03-24T00:40:16.327Z,15.97
2023-03-24T00:42:47.729Z,15.98
2023-03-24T00:45:18.236Z,16.13
2023-03-24T00:47:45.018Z,16.00
2023-03-24T00:50:17.377Z,16.21
2023-03-24T00:52:48.287Z,16.09
2023-03-24T00:55:16.350Z,16.21
2023-03-24T00:57:50.151Z,16.23
2023-03-24T01:00:24.185Z,16.33
2023-03-24T01:02:56.281Z,16.39
2023-03-24T01:05:25.617Z,16.34
2023-03-24T01:07:52.247Z,16.35
2023-03-24T01:10:26.043Z,16.31
2023-03-24T01:12:55.425Z,16.27
2023-03-24T01:15:24.622Z,16.34
2023-03-24T01:17:53.107Z,16.40
2023-03-24T01:20:22.943Z,16.41
2023-03-24T01:22:50.732Z,16.49
2023-03-24T01:25:22.845Z,16.33
2023-03-24T01:27:50.683Z,16.48
2023-03-24T01:30:19.426Z,16.57
2023-03-24T01:32:46.016Z,16.51
2023-03-24T01:35:13.036Z,16.54
2023-03-24T01:37:41.197Z,16.62
2023-03-24T01:40:10.059Z,16.62
2023-03-24T01:42:38.304Z,16.57
2023-03-24T01:45:43.682Z,16.73
2023-03-24T01:48:18.514Z,16.64
2023-03-24T01:50:48.952Z,16.59
2023-03-24T01:53:15.607Z,16.60
2023-03-24T01:55:43.252Z,16.60
2023-03-24T01:58:10.283Z,16.57
2023-03-24T02:00:48.279Z,16.57
2023-03-24T02:03:47.837Z,16.65
2023-03-24T02:06:16.060Z,16.65
2023-03-24T02:09:04.306Z,16.73
2023-03-24T02:11:56.215Z,16.59
2023-03-24T02:14:23.040Z,16.68
2023-03-24T02:17:36.308Z,16.99
2023-03-24T02:20:15.038Z,16.77
2023-03-24T02:23:01.609Z,16.81
2023-03-24T02:25:47.914Z,16.67
2023-03-24T02:28:39.800Z,16.73
2023-03-24T02:31:16.237Z,16.75
2023-03-24T02:34:11.270Z,16.89
2023-03-24T02:37:02.902Z,16.85
2023-03-24T02:39:47.444Z,16.80
2023-03-24T02:42:30.059Z,16.84
2023-03-24T02:45:35.389Z,16.05
2023-03-24T02:48:11.811Z,15.86
2023-03-24T02:50:52.358Z,15.85
2023-03-24T02:54:07.723Z,15.62
2023-03-24T02:57:01.960Z,15.69
2023-03-24T03:00:00.907Z,15.68
2023-03-24T03:02:55.731Z,15.18
2023-03-24T03:05:28.422Z,15.50
2023-03-24T03:07:58.009Z,15.45
2023-03-24T03:10:29.874Z,15.17
2023-03-24T03:12:59.329Z,15.38
2023-03-24T03:15:33.848Z,15.38
2023-03-24T03:18:34.090Z,15.60
2023-03-24T03:21:05.151Z,15.58
2023-03-24T03:23:49.120Z,15.39
2023-03-24T03:26:17.402Z,15.42
2023-03-24T03:28:49.905Z,15.63
2023-03-24T03:31:21.713Z,15.76
2023-03-24T03:33:58.824Z,15.73
2023-03-24T03:36:42.316Z,15.74
2023-03-24T03:39:28.580Z,15.67
2023-03-24T03:41:57.572Z,15.57
2023-03-24T03:44:25.300Z,15.65
2023-03-24T03:46:52.603Z,15.39
2023-03-24T03:49:27.732Z,15.50
2023-03-24T03:51:55.837Z,15.71
2023-03-24T03:54:23.455Z,15.55
2023-03-24T03:56:50.421Z,15.55
2023-03-24T03:59:35.503Z,15.71
2023-03-24T04:02:42.277Z,15.61
2023-03-24T04:05:19.793Z,15.81
2023-03-24T04:08:06.312Z,15.92
2023-03-24T04:11:06.478Z,15.99
2023-03-24T04:14:06.613Z,16.17
2023-03-24T04:16:59.162Z,16.18
2023-03-24T04:19:37.190Z,15.94
2023-03-24T04:22:17.511Z,16.19
2023-03-24T04:24:56.490Z,16.14
2023-03-24T04:27:38.844Z,16.36
2023-03-24T04:30:23.603Z,16.40
2023-03-24T04:32:59.328Z,16.31
2023-03-24T04:35:33.216Z,16.39
2023-03-24T04:38:23.205Z,16.60
2023-03-24T04:40:57.600Z,16.66
2023-03-24T04:43:27.876Z,16.77
2023-03-24T04:45:57.698Z,16.72
2023-03-24T04:48:31.552Z,16.58
2023-03-24T04:51:11.103Z,16.35
2023-03-24T04:54:03.802Z,16.51
2023-03-24T04:56:46.032Z,16.66
2023-03-24T04:59:30.824Z,16.53
2023-03-24T05:01:58.073Z,16.70
2023-03-24T05:04:57.020Z,16.75
2023-03-24T05:07:32.917Z,16.78
2023-03-24T05:10:02.416Z,16.92
2023-03-24T05:12:32.130Z,16.99
2023-03-24T05:15:17.214Z,16.80
2023-03-24T05:17:46.202Z,17.05
2023-03-24T05:20:13.014Z,17.02
2023-03-24T05:22:42.674Z,17.05
2023-03-24T05:25:09.542Z,17.07
2023-03-24T05:27:36.207Z,17.15
2023-03-24T05:30:15.488Z,17.19
2023-03-24T05:32:43.001Z,17.23
2023-03-24T05:35:10.367Z,17.18
2023-03-24T05:37:36.916Z,17.24
2023-03-24T05:40:03.982Z,17.33
2023-03-24T05:42:40.463Z,17.39
2023-03-24T05:45:09.609Z,17.41
2023-03-24T05:47:36.820Z,17.22
2023-03-24T05:50:04.392Z,17.40
2023-03-24T05:52:31.936Z,17.48
2023-03-24T05:55:12.164Z,17.58
2023-03-24T05:57:39.537Z,17.48
2023-03-24T06:00:24.879Z,17.55
2023-03-24T06:02:58.321Z,17.64
2023-03-24T06:05:29.786Z,17.60
2023-03-24T06:07:58.758Z,17.64
2023-03-24T06:10:28.099Z,17.69
2023-03-24T06:12:55.802Z,17.78
2023-03-24T06:15:28.122Z,17.80
2023-03-24T06:18:01.128Z,17.62
2023-03-24T06:20:34.515Z,17.61
2023-03-24T06:23:10.496Z,17.67
2023-03-24T06:25:52.530Z,17.77
2023-03-24T06:28:26.054Z,17.64
2023-03-24T06:30:53.450Z,17.42
2023-03-24T06:33:25.931Z,17.60
2023-03-24T06:35:54.018Z,17.68
2023-03-24T06:38:20.645Z,17.48
2023-03-24T06:40:47.250Z,17.71
2023-03-24T06:43:14.502Z,17.73
2023-03-24T06:48:17.643Z,17.87
2023-03-24T06:50:44.487Z,17.92
2023-03-24T06:53:11.277Z,17.89
2023-03-24T06:55:38.565Z,17.87
2023-03-24T06:58:05.678Z,17.89
2023-03-24T07:00:32.182Z,17.92
2023-03-24T07:03:18.855Z,17.56
2023-03-24T07:06:02.552Z,17.61
2023-03-24T07:08:38.134Z,17.59
2023-03-24T07:11:08.914Z,17.80
2023-03-24T07:13:38.283Z,17.45
2023-03-24T07:16:05.421Z,17.52
2023-03-24T07:18:33.621Z,17.55
2023-03-24T07:21:04.337Z,17.64
2023-03-24T07:23:32.579Z,17.63
2023-03-24T07:26:20.670Z,18.04
2023-03-24T07:28:47.590Z,18.42
2023-03-24T07:31:37.778Z,18.76
2023-03-24T07:34:07.602Z,18.64
2023-03-24T07:36:36.404Z,18.41
2023-03-24T07:39:05.254Z,18.51
2023-03-24T07:41:34.589Z,18.26
2023-03-24T07:44:05.992Z,18.41
2023-03-24T07:46:36.635Z,18.22
2023-03-24T07:49:18.254Z,18.19
2023-03-24T07:51:50.465Z,18.06
2023-03-24T07:54:23.496Z,17.60
2023-03-24T07:56:51.632Z,17.70
2023-03-24T07:59:18.695Z,17.26
2023-03-24T08:01:55.395Z,17.36
2023-03-24T08:04:42.924Z,17.36
2023-03-24T08:07:40.291Z,17.34
2023-03-24T08:10:10.943Z,17.27
2023-03-24T08:12:37.469Z,16.82
2023-03-24T08:15:05.087Z,16.83
2023-03-24T08:17:32.359Z,16.82
2023-03-24T08:20:01.345Z,17.03
2023-03-24T08:22:29.226Z,17.17
2023-03-24T08:24:55.730Z,17.22
2023-03-24T08:27:23.533Z,17.39
2023-03-24T08:29:50.049Z,17.50
2023-03-24T08:32:16.571Z,17.38
2023-03-24T08:34:43.045Z,17.78
2023-03-24T08:37:09.659Z,17.54
2023-03-24T08:39:36.200Z,17.75
2023-03-24T08:42:02.902Z,17.75
2023-03-24T08:44:31.102Z,17.78
2023-03-24T08:47:01.023Z,17.90
2023-03-24T08:49:27.634Z,17.86
2023-03-24T08:51:54.177Z,18.06
2023-03-24T08:54:23.507Z,17.90
2023-03-24T08:56:51.135Z,18.05
2023-03-24T08:59:18.114Z,18.15
2023-03-24T09:01:45.081Z,18.32
2023-03-24T09:04:11.896Z,18.29
2023-03-24T09:06:38.513Z,18.30
2023-03-24T09:09:05.183Z,18.39
2023-03-24T09:11:31.810Z,18.37
2023-03-24T09:13:58.380Z,18.41
2023-03-24T09:16:24.978Z,18.51
2023-03-24T09:18:51.645Z,18.37
2023-03-24T09:21:18.190Z,18.48
2023-03-24T09:23:44.937Z,18.59
2023-03-24T09:26:11.705Z,18.54
2023-03-24T09:28:38.253Z,18.57
2023-03-24T09:31:06.168Z,18.67
2023-03-24T09:33:34.960Z,18.91
2023-03-24T09:36:02.784Z,19.22
2023-03-24T09:38:30.492Z,19.53
2023-03-24T09:41:01.512Z,19.90
2023-03-24T09:43:41.864Z,20.36
2023-03-24T09:46:14.598Z,20.32
2023-03-24T09:48:49.552Z,20.44
2023-03-24T09:51:23.760Z,20.59
2023-03-24T09:54:05.167Z,20.44
2023-03-24T09:56:32.781Z,20.55
2023-03-24T09:59:07.380Z,20.78
2023-03-24T10:01:36.125Z,20.39
2023-03-24T10:04:03.591Z,20.33
2023-03-24T10:06:31.994Z,20.44
2023-03-24T10:09:24.545Z,20.58
2023-03-24T10:11:50.956Z,20.35
2023-03-24T10:14:54.776Z,20.57
2023-03-24T10:17:40.157Z,20.58
2023-03-24T10:20:28.139Z,20.53
2023-03-24T10:23:07.910Z,20.42
2023-03-24T10:25:47.158Z,20.50
2023-03-24T10:28:24.071Z,20.73
2023-03-24T10:30:51.437Z,20.60
2023-03-24T10:33:18.849Z,20.72
2023-03-24T10:36:10.991Z,21.12
2023-03-24T10:38:37.737Z,21.51
2023-03-24T10:41:04.478Z,21.76
2023-03-24T10:43:32.184Z,21.85
2023-03-24T10:45:59.689Z,21.87
2023-03-24T10:48:42.811Z,21.92
2023-03-24T10:51:27.050Z,21.60
2023-03-24T10:54:22.264Z,21.76
2023-03-24T10:56:51.494Z,21.60
2023-03-24T10:59:21.760Z,21.72
2023-03-24T11:01:48.354Z,21.63
2023-03-24T11:04:17.442Z,21.70
2023-03-24T11:07:15.133Z,21.64
2023-03-24T11:09:43.562Z,21.62
2023-03-24T11:12:21.656Z,21.55
2023-03-24T11:14:48.165Z,21.40
2023-03-24T11:17:16.019Z,21.64
2023-03-24T11:19:54.355Z,22.22
2023-03-24T11:22:21.456Z,22.49
2023-03-24T11:24:52.511Z,22.57
2023-03-24T11:27:19.506Z,22.74
2023-03-24T11:29:50.167Z,22.77
2023-03-24T11:32:25.647Z,22.68
2023-03-24T11:35:18.546Z,22.41
2023-03-24T11:37:45.830Z,22.51
2023-03-24T11:40:12.300Z,22.83
2023-03-24T11:42:45.941Z,22.82
2023-03-24T11:45:38.289Z,23.42
2023-03-24T11:48:12.433Z,23.33
2023-03-24T11:50:39.491Z,23.37
2023-03-24T11:53:17.353Z,23.73
2023-03-24T11:56:05.668Z,23.75
2023-03-24T11:58:50.330Z,23.97
2023-03-24T12:01:28.661Z,23.73
2023-03-24T12:04:15.799Z,23.55
2023-03-24T12:07:07.836Z,23.57
2023-03-24T12:09:51.688Z,23.32
2023-03-24T12:12:27.671Z,23.17
2023-03-24T12:15:26.739Z,23.13
2023-03-24T12:18:18.239Z,23.38
2023-03-24T12:21:12.605Z,23.28
2023-03-24T12:23:55.043Z,23.32
2023-03-24T12:26:28.225Z,22.95
2023-03-24T12:29:17.515Z,22.67
2023-03-24T12:32:11.329Z,22.41
2023-03-24T12:35:15.517Z,22.43
2023-03-24T12:37:52.198Z,22.36
2023-03-24T12:40:46.942Z,22.41
2023-03-24T12:43:20.018Z,22.26
2023-03-24T12:45:54.541Z,22.27
2023-03-24T12:48:53.378Z,22.29
2023-03-24T12:51:31.391Z,22.22
2023-03-24T12:54:30.008Z,22.07
2023-03-24T12:57:02.278Z,22.04
2023-03-24T12:59:51.470Z,21.71
2023-03-24T13:02:31.577Z,21.36
2023-03-24T13:05:05.473Z,21.48
2023-03-24T13:07:39.054Z,21.57
2023-03-24T13:10:13.607Z,21.50
2023-03-24T13:12:52.485Z,21.37
2023-03-24T13:15:31.197Z,21.32
2023-03-24T13:18:10.062Z,21.22
2023-03-24T13:20:40.670Z,21.31
2023-03-24T13:23:22.362Z,21.08
2023-03-24T13:25:54.918Z,21.22
2023-03-24T13:28:27.970Z,21.08
2023-03-24T13:30:54.854Z,21.22
2023-03-24T13:33:28.120Z,21.43
2023-03-24T13:36:08.364Z,21.48
2023-03-24T13:38:46.116Z,21.39
2023-03-24T13:41:24.641Z,21.52
2023-03-24T13:43:58.476Z,21.46
2023-03-24T13:46:25.292Z,21.29
2023-03-24T13:48:55.389Z,21.33
2023-03-24T13:51:31.756Z,21.42
2023-03-24T13:54:03.364Z,21.42
2023-03-24T13:56:40.205Z,21.30
2023-03-24T13:59:28.364Z,21.32
2023-03-24T14:02:29.052Z,21.33
2023-03-24T14:05:03.094Z,21.24
2023-03-24T14:07:32.482Z,21.35
2023-03-24T14:10:16.248Z,21.34
2023-03-24T14:13:02.039Z,21.56
2023-03-24T14:15:33.393Z,21.42
2023-03-24T14:18:24.455Z,21.48
2023-03-24T14:20:57.471Z,21.37
2023-03-24T14:23:46.734Z,21.23
2023-03-24T14:26:16.165Z,21.32
2023-03-24T14:28:48.711Z,21.21
2023-03-24T14:31:18.493Z,21.15
2023-03-24T14:33:54.547Z,21.27
2023-03-24T14:36:27.151Z,21.39
2023-03-24T14:38:53.715Z,21.41
2023-03-24T14:41:31.170Z,21.50
2023-03-24T14:43:59.534Z,21.47
2023-03-24T14:46:47.542Z,21.72
2023-03-24T14:49:23.867Z,21.70
2023-03-24T14:52:02.210Z,21.62
2023-03-24T14:54:47.256Z,21.75
2023-03-24T14:57:26.566Z,21.77
2023-03-24T15:00:15.010Z,21.67
2023-03-24T15:02:58.487Z,21.84
2023-03-24T15:05:31.978Z,21.80
2023-03-24T15:08:23.858Z,21.76
2023-03-24T15:11:06.165Z,21.74
2023-03-24T15:13:42.526Z,21.48
2023-03-24T15:16:12.047Z,21.36
2023-03-24T15:19:02.068Z,21.52
2023-03-24T15:21:33.593Z,21.57
2023-03-24T15:24:01.581Z,21.49
2023-03-24T15:26:30.081Z,21.53
2023-03-24T15:29:07.042Z,21.60
2023-03-24T15:31:33.661Z,21.56
2023-03-24T15:34:28.300Z,21.58
2023-03-24T15:36:57.408Z,21.47
2023-03-24T15:39:27.841Z,21.31
2023-03-24T15:41:54.485Z,21.27
2023-03-24T15:44:25.601Z,21.13
2023-03-24T15:46:55.038Z,21.15
2023-03-24T15:49:31.766Z,21.04
2023-03-24T15:52:03.939Z,20.97
2023-03-24T15:54:36.629Z,20.93
2023-03-24T15:57:23.447Z,21.04
2023-03-24T16:00:11.918Z,20.88
2023-03-24T16:02:48.284Z,20.91
2023-03-24T16:05:22.116Z,20.92
2023-03-24T16:08:05.803Z,20.88
2023-03-24T16:10:42.839Z,20.77
2023-03-24T16:13:19.364Z,20.79
2023-03-24T16:16:22.099Z,20.81
2023-03-24T16:19:45.780Z,20.89
2023-03-24T16:22:24.477Z,20.63
2023-03-24T16:25:06.580Z,20.65
2023-03-24T16:27:59.409Z,20.64
2023-03-24T16:30:37.448Z,20.56
2023-03-24T16:33:34.095Z,20.64
2023-03-24T16:36:06.759Z,20.65
2023-03-24T16:39:34.892Z,20.72
2023-03-24T16:42:14.238Z,20.70
2023-03-24T16:44:52.450Z,20.65
2023-03-24T16:47:20.782Z,20.63
2023-03-24T16:49:49.077Z,20.64
2023-03-24T16:52:17.118Z,20.52
2023-03-24T16:54:57.958Z,20.47
2023-03-24T16:57:24.954Z,20.28
2023-03-24T17:05:54.085Z,20.33
2023-03-24T17:08:26.841Z,20.16
2023-03-24T17:11:00.041Z,20.19
2023-03-24T17:13:31.432Z,20.11
2023-03-24T17:16:13.311Z,20.10
2023-03-24T17:18:47.265Z,20.05
2023-03-24T17:21:16.185Z,19.98
2023-03-24T17:23:43.757Z,19.90
2023-03-24T17:26:10.292Z,19.86
2023-03-24T17:28:36.827Z,19.75
2023-03-24T17:31:03.418Z,19.71
2023-03-24T17:33:30.068Z,19.69
2023-03-24T17:35:56.610Z,19.64
2023-03-24T17:38:23.306Z,19.58
2023-03-24T17:40:58.925Z,19.62
2023-03-24T17:43:27.282Z,19.51
2023-03-24T17:46:01.400Z,19.54
2023-03-24T17:48:28.462Z,19.41
2023-03-24T17:50:56.937Z,19.36
2023-03-24T17:53:27.050Z,19.35
2023-03-24T17:55:58.586Z,19.27
2023-03-24T17:58:30.183Z,19.17
2023-03-24T18:00:58.299Z,19.14
2023-03-24T18:03:26.065Z,19.10
2023-03-24T18:05:52.806Z,19.08
2023-03-24T18:08:19.657Z,19.02
2023-03-24T18:10:46.258Z,18.94
2023-03-24T18:13:14.585Z,18.93
2023-03-24T18:15:43.667Z,18.82
2023-03-24T18:18:12.160Z,18.77
2023-03-24T18:20:39.432Z,18.68
2023-03-24T18:23:06.485Z,18.62
2023-03-24T18:25:33.313Z,18.58
2023-03-24T18:27:59.938Z,18.45
2023-03-24T18:30:26.581Z,18.40
2023-03-24T18:32:53.202Z,18.36
2023-03-24T18:35:20.422Z,18.29
2023-03-24T18:37:47.099Z,18.24
2023-03-24T18:40:14.858Z,18.23
2023-03-24T18:42:41.425Z,18.17
2023-03-24T18:45:08.555Z,18.17
2023-03-24T18:47:35.179Z,18.15
2023-03-24T18:50:01.977Z,18.09
2023-03-24T18:52:28.947Z,18.04
2023-03-24T18:54:59.445Z,17.98
2023-03-24T18:57:26.184Z,17.95
2023-03-24T18:59:53.254Z,17.88
2023-03-24T19:02:19.859Z,17.87
2023-03-24T19:04:48.184Z,17.82
2023-03-24T19:07:14.913Z,17.76
2023-03-24T19:09:42.338Z,17.76
2023-03-24T19:12:09.520Z,17.78
2023-03-24T19:14:36.579Z,17.74
2023-03-24T19:17:03.718Z,17.74
2023-03-24T19:19:31.701Z,17.81
2023-03-24T19:21:58.878Z,17.69
2023-03-24T19:24:26.368Z,17.66
2023-03-24T19:26:53.990Z,17.57
2023-03-24T19:29:21.503Z,17.60
2023-03-24T19:31:49.568Z,17.53
2023-03-24T19:34:16.192Z,17.56
2023-03-24T19:36:46.464Z,17.52
2023-03-24T19:39:15.071Z,17.48
2023-03-24T19:41:41.719Z,17.45
2023-03-24T19:44:08.304Z,17.43
2023-03-24T19:46:34.910Z,17.42
2023-03-24T19:49:01.527Z,17.43
2023-03-24T19:51:28.090Z,17.43
2023-03-24T19:53:55.339Z,17.46
2023-03-24T19:56:23.378Z,17.42
2023-03-24T19:58:50.422Z,17.36
2023-03-24T20:01:17.589Z,17.35
2023-03-24T20:03:44.298Z,17.36
2023-03-24T20:06:11.247Z,17.32
2023-03-24T20:08:38.355Z,17.28
2023-03-24T20:11:10.685Z,17.20
2023-03-24T20:13:38.748Z,17.12
2023-03-24T20:16:06.149Z,17.06
2023-03-24T20:18:34.352Z,17.03
2023-03-24T20:21:01.667Z,17.06
2023-03-24T20:23:28.488Z,17.00
2023-03-24T20:26:04.192Z,17.11
2023-03-24T20:28:30.801Z,17.01
2023-03-24T20:31:01.972Z,17.04
2023-03-24T20:33:31.749Z,17.39
2023-03-24T20:35:58.885Z,17.04
2023-03-24T20:38:25.958Z,17.04
2023-03-24T20:41:00.381Z,17.16
2023-03-24T20:43:27.253Z,17.05
2023-03-24T20:45:58.157Z,17.11
2023-03-24T20:48:25.312Z,17.38
2023-03-24T20:51:07.726Z,16.95
2023-03-24T20:53:35.685Z,17.03
2023-03-24T20:56:07.255Z,17.00
2023-03-24T20:58:35.065Z,16.82
2023-03-24T21:01:08.091Z,16.90
2023-03-24T21:03:35.096Z,16.83
2023-03-24T21:06:01.953Z,16.84
2023-03-24T21:08:28.924Z,16.89
2023-03-24T21:10:56.722Z,16.77
2023-03-24T21:13:23.687Z,16.77
2023-03-24T21:15:50.396Z,16.80
2023-03-24T21:18:17.196Z,16.78
2023-03-24T21:20:57.746Z,16.83
2023-03-24T21:23:24.811Z,16.81
2023-03-24T21:25:52.071Z,16.74
2023-03-24T21:28:18.742Z,16.73
2023-03-24T21:30:46.170Z,16.72
2023-03-24T21:33:14.615Z,16.71
2023-03-24T21:35:41.586Z,16.73
2023-03-24T21:38:09.583Z,16.70
2023-03-24T21:40:36.256Z,16.61
2023-03-24T21:43:05.631Z,16.60
2023-03-24T21:45:33.216Z,16.50
2023-03-24T21:48:00.073Z,16.50
2023-03-24T21:50:26.718Z,16.50
2023-03-24T21:52:54.774Z,16.47
2023-03-24T21:55:22.377Z,16.48
2023-03-24T21:57:50.490Z,16.45
2023-03-24T22:00:19.633Z,16.45
2023-03-24T22:02:49.683Z,16.41
2023-03-24T22:05:18.973Z,16.42
2023-03-24T22:07:46.927Z,16.36
2023-03-24T22:10:16.259Z,16.36
2023-03-24T22:12:43.948Z,16.31
2023-03-24T22:15:11.836Z,16.30
2023-03-24T22:17:38.790Z,16.22
2023-03-24T22:20:06.384Z,16.21
2023-03-24T22:22:33.689Z,16.14
2023-03-24T22:25:00.224Z,16.14
2023-03-24T22:27:26.730Z,16.13
2023-03-24T22:29:53.288Z,16.10
2023-03-24T22:32:19.873Z,16.05
2023-03-24T22:34:46.460Z,15.99
2023-03-24T22:37:12.999Z,15.98
2023-03-24T22:39:39.500Z,15.99
2023-03-24T22:42:06.004Z,15.96
2023-03-24T22:44:33.573Z,15.96
2023-03-24T22:47:02.243Z,15.92
2023-03-24T22:49:29.652Z,15.91
2023-03-24T22:51:56.246Z,15.87
2023-03-24T22:54:23.466Z,15.80
2023-03-24T22:56:50.308Z,15.71
2023-03-24T22:59:16.920Z,15.59
2023-03-24T23:01:43.478Z,15.55
2023-03-24T23:04:10.114Z,15.53
2023-03-24T23:06:36.947Z,15.48
2023-03-24T23:09:04.709Z,15.47
2023-03-24T23:11:31.964Z,15.41
2023-03-24T23:14:04.542Z,15.29
2023-03-24T23:16:33.185Z,15.31
2023-03-24T23:19:00.485Z,15.32
2023-03-24T23:21:27.616Z,15.26
2023-03-24T23:23:54.250Z,15.29
2023-03-24T23:26:25.214Z,15.29
2023-03-24T23:28:53.545Z,15.33
2023-03-24T23:31:24.774Z,15.28
2023-03-24T23:33:53.954Z,15.11
2023-03-24T23:36:20.522Z,15.03
2023-03-24T23:38:50.539Z,14.97
2023-03-24T23:41:17.868Z,15.05
2023-03-24T23:43:48.201Z,15.10
2023-03-24T23:46:14.824Z,15.14
2023-03-24T23:48:41.472Z,15.11
2023-03-24T23:51:08.008Z,15.13
2023-03-24T23:53:35.813Z,15.02
2023-03-24T23:56:07.814Z,14.72
2023-03-24T23:58:36.642Z,14.86
